Anza Borrego Desert State Park, California Weather observations

Data are for 10 minute period ending at time listed.
 Day   Time   Solar   Ave.   Ave.  Ave.  Vector  Max.   Baro.   Total    
  of    of     Rad.   Air    Rel.  Wind   Wind   Wind  Press.  Precip.   
Year   Day            Temp.  Hum.  Speed  Dir.   Gust                    
2016   (PST)  Kw/m2    F      %     mph   deg.    mph    mb.     in.     
-------------------------------------------------------------------------
 240    5:30   0.01   72.9    30    4.0   248     5.0   980.4    0.00 
 240    5:40   0.02   73.8    29    5.1   248     6.0   980.4    0.00 
 240    5:50   0.04   75.3    28    6.3   247     7.7   980.5    0.00 
 240    6:00   0.07   77.5    26    6.7   250     7.7   980.5    0.00 
 240    6:10   0.09   80.2    24    4.1   238     6.4   980.6    0.00 
 240    6:20   0.12   82.5    22    3.6   201     4.2   980.7    0.00 
 240    6:30   0.15   82.9    22    5.6    94     8.9   980.8    0.00 
 240    6:40   0.18   80.7    25    3.5    84     6.7   981.1    0.00 
 240    6:50   0.22   81.0    25    4.0   304     7.1   981.3    0.00 
 240    7:00   0.25   82.4    24    2.1   324     6.2   981.5    0.00 
 240    7:10   0.29   85.3    21    2.3     8     4.4   981.6    0.00 
 240    7:20   0.33   86.1    20    2.5   136     5.6   981.5    0.00 
 240    7:30   0.36   87.2    19    5.1   152     7.6   981.5    0.00 
 240    7:40   0.40   86.8    19    6.0   144     7.8   981.5    0.00 
 240    7:50   0.43   87.7    19    4.5   134     7.2   981.5    0.00 
 240    8:00   0.47   88.3    18    3.9   111     6.1   981.6    0.00 
 240    8:10   0.50   88.4    18    3.8    96     5.6   981.8    0.00 
 240    8:20   0.53   89.1    19    3.7    98     6.7   981.9    0.00 
 240    8:30   0.56   89.0    21    4.9    90     8.3   982.0    0.00 
 240    8:40   0.59   89.2    20    4.8   114     9.9   982.3    0.00 
 240    8:50   0.61   89.2    29    5.8   132     9.4   982.4    0.00 
 240    9:00   0.64   88.3    35    7.1   122    11.6   982.4    0.00 
 240    9:10   0.67   88.6    37    4.8   118    10.7   982.5    0.00 
 240    9:20   0.69   89.4    36    6.5   152    10.7   982.5    0.00 
 240    9:30   0.71   89.4    37    3.0   230     6.9   982.6    0.00 
 240    9:40   0.74   90.6    37    4.7   118     8.5   982.7    0.00 
 240    9:50   0.76   90.4    37    4.7   148     8.7   982.9    0.00 
 240   10:00   0.79   90.8    36    4.7   110     8.0   982.9    0.00 
 240   10:10   0.81   91.2    35    3.7    91     8.9   982.8    0.00 
 240   10:20   0.82   91.3    34    6.6   112    12.1   982.9    0.00 
 240   10:30   0.84   91.7    33    2.6   232     8.3   982.8    0.00 
 240   10:40   0.85   92.9    31    3.7   120     7.6   982.8    0.00 
 240   10:50   0.87   93.0    28    6.5    97    11.5   982.9    0.00 
 240   11:00   0.87   92.9    28    5.1   113    12.1   982.8    0.00 
 240   11:10   0.88   93.7    28    7.2   146    15.7   982.7    0.00 
 240   11:20   0.89   94.0    29    8.0   139    15.4   982.5    0.00 
 240   11:30   0.90   94.2    29    7.2   146    13.5   982.4    0.00 
 240   11:40   0.91   93.8    29    7.8   121    20.2   982.3    0.00 
 240   11:50   0.92   94.8    28    8.8   132    15.3   982.2    0.00 
 240   12:00   0.93   94.2    29   10.8   132    17.8   982.1    0.00 
 240   12:10   0.93   94.7    28    9.9   129    15.3   982.1    0.00 
 240   12:20   0.94   94.6    28    8.2   129    16.4   982.1    0.00 
 240   12:30   0.94   94.6    28   10.4   134    20.0   982.0    0.00 
 240   12:40   0.91   95.4    26   10.3   140    16.7   982.0    0.00 
 240   12:50   0.89   95.8    25   10.8   129    17.5   981.9    0.00 
 240   13:00   0.90   95.3    25    6.6   134    14.3   981.8    0.00 
 240   13:10   0.88   95.7    25    6.9    86    13.2   981.6    0.00 
 240   13:20   0.85   96.2    24    8.5   130    15.4   981.4    0.00 
 240   13:30   0.83   96.3    24    7.5   122    15.6   981.3    0.00 
 240   13:40   0.81   95.8    25    9.3   138    15.3   981.1    0.00 
 240   13:50   0.80   96.4    24    7.3   170    14.5   981.0    0.00 
 240   14:00   0.79   96.5    25    7.5   152    13.0   980.9    0.00 
 240   14:10   0.75   96.9    24    9.3   125    16.2   980.8    0.00 
 240   14:20   0.72   95.9    24    4.3   109    11.6   980.7    0.00 
 240   14:30   0.70   97.1    23    9.8   116    18.1   980.6    0.00 
 240   14:40   0.67   96.8    23    8.5   132    13.9   980.5    0.00 
 240   14:50   0.65   96.6    22    7.0   128    11.2   980.4    0.00 
 240   15:00   0.61   96.6    22    5.0   125     9.6   980.4    0.00 
 240   15:10   0.58   97.2    22    3.9   166     7.5   980.3    0.00 
 240   15:20   0.55   97.7    22    6.7   127    11.5   980.3    0.00 
 240   15:30   0.52   97.1    22    4.3   120    11.8   980.1    0.00 
 240   15:40   0.49   97.6    22    2.8   146     7.8   980.1    0.00 
 240   15:50   0.46   97.7    22    5.5   166    12.6   980.0    0.00 
 240   16:00   0.42   97.9    21    4.4    91     8.6   979.9    0.00 
 240   16:10   0.39   97.4    21    5.4   110    12.7   979.9    0.00 
 240   16:20   0.35   96.9    20    7.0    61    10.7   979.8    0.00 
 240   16:30   0.32   97.3    20    4.4    66    10.7   979.8    0.00 
 240   16:40   0.28   97.4    20    6.6   116    11.5   979.7    0.00 
 240   16:50   0.25   97.1    21    3.0    91     5.8   979.7    0.00 
 240   17:00   0.21   98.0    20    2.3    61     5.2   979.7    0.00 
 240   17:10   0.09   96.8    21    4.3    86     8.3   979.7    0.00 
 240   17:20   0.03   94.6    21    2.6    86     5.4   979.8    0.00 
 240   17:30   0.03   94.3    21    4.6   109     6.8   979.7    0.00 
 240   17:40   0.02   94.0    21    3.3    98     6.1   979.5    0.00 
 240   17:50   0.01   93.9    20    3.8   104     7.9   979.5    0.00 
 240   18:00   0.01   93.6    21    3.5   102     7.0   979.5    0.00 
 240   18:10   0.01   93.3    21    0.5   158     1.7   979.4    0.00 
 240   18:20   0.00   92.8    21    2.9    91     5.6   979.5    0.00 
 240   18:30   0.00   92.6    21    3.8   105     5.0   979.5    0.00 
 240   18:40   0.00   91.7    22    2.2   120     3.9   979.4    0.00 
 240   18:50   0.00   90.4    22    1.8   153     2.3   979.5    0.00 
 240   19:00   0.00   88.6    23    2.8   239     4.6   979.4    0.00 
 240   19:10   0.00   88.0    23    4.6   231     5.7   979.5    0.00 
 240   19:20   0.00   87.3    24    4.2   220     5.3   979.7    0.00 
 240   19:30   0.00   86.6    24    4.2   231     6.1   979.8    0.00 
 240   19:40   0.00   87.2    24    6.0   238     8.0   979.9    0.00 
 240   19:50   0.00   88.3    24    7.2   239     8.4   980.0    0.00 
 240   20:00   0.00   89.0    24    6.1   246     8.4   980.1    0.00 
 240   20:10   0.00   88.9    24    4.7   267     6.8   980.2    0.00 
 240   20:20   0.00   89.0    24    4.4   283     6.4   980.3    0.00 
 240   20:30   0.00   89.1    24    3.5   262     6.1   980.3    0.00 
 240   20:40   0.00   89.0    25    3.3   263     5.3   980.4    0.00 
 240   20:50   0.00   89.3    24    5.7   245     8.0   980.4    0.00 
 240   21:00   0.00   89.1    24    4.5   259     7.3   980.5    0.00 
 240   21:10   0.00   88.4    24    4.7   251     7.0   980.6    0.00 
 240   21:20   0.00   88.9    26    5.7   296    11.3   980.6    0.00 
 240   21:30   0.00   89.9    26    9.5   308    14.5   980.6    0.00 
 240   21:40   0.00   90.0    26    8.8   304    12.6   980.6    0.00 
 240   21:50   0.00   89.3    26    4.6   267     7.7   980.7    0.00 
 240   22:00   0.00   89.2    26    6.7   277    11.4   980.7    0.00 
 240   22:10   0.00   89.5    26    7.5   298    14.0   980.6    0.00 
 240   22:20   0.00   89.4    26    7.1   301    10.9   980.6    0.00 
 240   22:30   0.00   89.3    26    7.8   306    12.2   980.6    0.00 
 240   22:40   0.00   88.6    26    3.9   282     9.3   980.7    0.00 
 240   22:50   0.00   86.2    28    2.1   252     5.4   980.7    0.00 
 240   23:00   0.00   85.4    29    4.0   233     7.2   980.7    0.00 
 240   23:10   0.00   86.2    29    4.0   233     6.6   980.7    0.00 
 240   23:20   0.00   85.6    28    3.5   247     5.4   980.7    0.00 
 240   23:30   0.00   83.6    30    2.4   199     4.7   980.7    0.00 
 240   23:40   0.00   82.8    31    3.2   229     5.2   980.7    0.00 
 240   23:50   0.00   83.4    31    4.1   191     5.6   980.8    0.00 
 241    0:00   0.00   82.3    30    4.1   226     5.8   980.8    0.00 
 241    0:10   0.00   81.6    31    4.4   232     5.9   980.9    0.00 
 241    0:20   0.00   82.7    31    2.3   311     4.3   981.0    0.00 
 241    0:30   0.00   81.8    34    2.0   306     3.1   981.0    0.00 
 241    0:40   0.00   81.7    35    2.9   293     3.9   981.1    0.00 
 241    0:50   0.00   80.2    35    2.9   248     3.7   981.2    0.00 
 241    1:00   0.00   78.7    34    2.8   241     4.2   981.1    0.00 
 241    1:10   0.00   78.8    34    3.8   242     4.7   981.0    0.00 
 241    1:20   0.00   78.9    34    2.8   275     4.1   981.1    0.00 
 241    1:30   0.00   78.0    34    3.2   246     5.2   981.0    0.00 
 241    1:40   0.00   78.0    33    2.0   231     4.9   981.1    0.00 
 241    1:50   0.00   77.9    34    2.5   256     4.2   981.1    0.00 
 241    2:00   0.00   78.0    33    2.4   245     3.4   981.1    0.00 
 241    2:10   0.00   79.1    32    3.0   248     4.7   981.1    0.00 
 241    2:20   0.00   78.9    32    4.2   197     5.6   981.2    0.00 
 241    2:30   0.00   79.2    33    1.0   162     3.3   981.3    0.00 
 241    2:40   0.00   78.5    34    1.6   209     3.6   981.4    0.00 
 241    2:50   0.00   78.1    34    3.9   294     5.3   981.5    0.00 
 241    3:00   0.00   79.0    34    3.6   249     4.8   981.5    0.00 
 241    3:10   0.00   79.3    34    2.9   225     4.2   981.5    0.00 
 241    3:20   0.00   77.2    35    3.6   230     5.1   981.5    0.00 
 241    3:30   0.00   77.2    35    4.4   215     5.8   981.6    0.00 
 241    3:40   0.00   79.4    33    4.6   203     5.8   981.6    0.00 
 241    3:50   0.00   78.2    33    3.7   229     5.3   981.6    0.00 
 241    4:00   0.00   76.9    34    2.7   268     4.6   981.7    0.00 
 241    4:10   0.00   76.7    34    1.3   296     2.9   981.8    0.00 
 241    4:20   0.00   77.0    36    1.8   340     3.1   981.9    0.00 
 241    4:30   0.00   77.8    36    0.2   324     1.4   981.9    0.00 
 241    4:40   0.00   76.7    36    2.2   207     3.5   982.0    0.00 
 241    4:50   0.00   76.0    37    3.0   202     4.1   982.1    0.00 
 241    5:00   0.00   75.4    38    3.1   235     3.9   982.2    0.00 
 241    5:10   0.00   74.7    38    3.2   264     4.2   982.3    0.00 
 241    5:20   0.00   75.3    38    4.2   244     5.3   982.4    0.00 

Return to Anza Borrego Desert State Park graphs page.


Western Regional Climate Center,wrcc@dri.edu